Time;durP1;ratioP1;P1;durP2;ratioP2;P2;SDS_P1;SDS_P2;PMS_P1;PMS_P2;Temp;Humidity;BMP_temperature;BMP_pressure;BME280_temperature;BME280_humidity;BME280_pressure;Samples;Min_cycle;Max_cycle;Signal;HPM_P1;HPM_P2
2022/09/26 00:00:34;;;;;;;16.20;13.85;;;18.10;48.40;;;;;;5034201;28;20744;-42
2022/09/26 00:03:00;;;;;;;18.10;14.85;;;18.10;48.30;;;;;;5034442;28;20189;-42
2022/09/26 00:05:26;;;;;;;17.93;14.07;;;18.10;48.20;;;;;;5034254;28;20530;-42
2022/09/26 00:07:52;;;;;;;15.70;13.70;;;18.10;48.20;;;;;;5033432;28;20436;-42
2022/09/26 00:10:18;;;;;;;15.40;13.80;;;18.20;48.20;;;;;;5034143;28;20174;-43
2022/09/26 00:12:44;;;;;;;15.00;13.37;;;18.20;48.10;;;;;;5033902;28;20407;-43
2022/09/26 00:15:10;;;;;;;15.40;12.57;;;18.20;48.90;;;;;;5033891;28;20224;-43
2022/09/26 00:17:36;;;;;;;16.73;13.60;;;18.20;48.20;;;;;;5033374;28;20617;-43
2022/09/26 00:20:03;;;;;;;15.33;12.90;;;18.20;48.20;;;;;;5033764;28;20170;-43
2022/09/26 00:22:29;;;;;;;18.63;14.10;;;18.20;48.10;;;;;;5033793;28;20300;-43
2022/09/26 00:24:54;;;;;;;17.77;13.70;;;18.20;48.10;;;;;;5033709;28;20209;-43
2022/09/26 00:27:21;;;;;;;21.80;14.97;;;18.30;48.10;;;;;;5033247;28;20181;-43
2022/09/26 00:29:47;;;;;;;16.15;12.20;;;18.30;48.10;;;;;;5033553;28;20178;-42
2022/09/26 00:32:12;;;;;;;19.17;13.43;;;18.30;48.10;;;;;;5033620;28;20177;-42
2022/09/26 00:34:38;;;;;;;18.57;13.40;;;18.30;48.20;;;;;;5033547;28;20896;-43
2022/09/26 00:37:04;;;;;;;17.73;14.17;;;18.30;48.10;;;;;;5032773;28;20217;-43
2022/09/26 00:39:30;;;;;;;14.30;12.23;;;18.30;48.10;;;;;;5033391;28;20428;-42
2022/09/26 00:41:56;;;;;;;18.70;14.80;;;18.30;48.10;;;;;;5033362;28;20569;-42
2022/09/26 00:44:45;;;;;;;17.10;14.37;;;18.30;48.20;;;;;;5033331;28;20214;-42
2022/09/26 00:47:40;;;;;;;18.77;12.15;;;18.30;48.30;;;;;;5032930;28;20441;-43
2022/09/26 00:50:15;;;;;;;12.65;11.35;;;18.30;48.40;;;;;;5033578;28;20190;-42
2022/09/26 00:52:52;;;;;;;19.45;13.57;;;18.30;48.40;;;;;;5033022;28;20229;-43
2022/09/26 00:55:22;;;;;;;18.88;12.88;;;18.30;48.50;;;;;;5033205;28;20176;-43
2022/09/26 00:57:54;;;;;;;15.75;12.35;;;18.20;48.40;;;;;;5032401;28;20205;-43
2022/09/26 01:00:22;;;;;;;16.67;12.98;;;18.20;48.50;;;;;;5033083;28;20170;-43
2022/09/26 01:02:49;;;;;;;15.00;12.73;;;18.30;48.60;;;;;;5033151;28;20177;-43
2022/09/26 01:05:19;;;;;;;17.30;12.55;;;18.30;48.60;;;;;;5032945;28;20297;-43
2022/09/26 01:07:45;;;;;;;14.85;12.25;;;18.30;48.60;;;;;;5032557;28;20276;-43
2022/09/26 01:10:12;;;;;;;15.52;13.23;;;18.30;48.70;;;;;;5033095;28;20193;-43
2022/09/26 01:12:38;;;;;;;15.55;12.80;;;18.30;48.70;;;;;;5032893;28;20641;-43
2022/09/26 01:15:07;;;;;;;19.93;13.07;;;18.30;48.80;;;;;;5032966;28;20182;-42
2022/09/26 01:17:34;;;;;;;15.07;12.52;;;18.30;48.90;;;;;;5031857;28;20452;-42
2022/09/26 01:20:21;;;;;;;19.13;13.38;;;18.30;49.00;;;;;;5032881;28;20194;-43
2022/09/26 01:22:56;;;;;;;18.65;14.00;;;18.20;48.80;;;;;;5032630;28;20166;-43
2022/09/26 01:25:50;;;;;;;16.25;12.02;;;18.20;48.90;;;;;;5032851;28;20624;-43
2022/09/26 01:28:52;;;;;;;14.20;11.15;;;18.30;49.00;;;;;;5032490;28;20182;-42
2022/09/26 01:31:24;;;;;;;17.00;12.50;;;18.30;49.20;;;;;;5032473;28;20178;-42
2022/09/26 01:34:19;;;;;;;15.15;12.00;;;18.20;49.30;;;;;;5031214;28;20166;-43
2022/09/26 01:37:14;;;;;;;13.73;12.23;;;18.20;49.30;;;;;;5031932;28;20197;-43
2022/09/26 01:40:01;;;;;;;17.15;12.90;;;18.20;49.30;;;;;;5032371;28;20196;-43
2022/09/26 01:42:41;;;;;;;20.48;14.45;;;18.20;49.40;;;;;;5032354;28;20185;-42
2022/09/26 01:45:13;;;;;;;18.13;14.38;;;18.10;49.40;;;;;;5032342;28;20158;-42
2022/09/26 01:47:54;;;;;;;15.73;13.60;;;18.20;49.50;;;;;;5031564;28;20704;-42
2022/09/26 01:50:48;;;;;;;18.05;14.45;;;18.10;49.60;;;;;;5032332;28;20188;-43
2022/09/26 01:53:20;;;;;;;21.05;14.98;;;18.10;49.60;;;;;;5030382;28;20178;-43
2022/09/26 01:55:53;;;;;;;15.27;12.40;;;18.10;49.70;;;;;;5031893;28;20169;-42
2022/09/26 01:58:34;;;;;;;22.17;15.55;;;18.10;49.70;;;;;;5032363;28;20628;-43
2022/09/26 02:01:08;;;;;;;20.05;15.90;;;18.10;49.70;;;;;;5032106;28;20534;-42
2022/09/26 02:03:45;;;;;;;17.00;13.10;;;18.10;49.70;;;;;;5031617;28;20190;-43
2022/09/26 02:06:16;;;;;;;16.17;12.90;;;18.10;50.00;;;;;;5031623;28;20183;-42
2022/09/26 02:08:54;;;;;;;19.20;14.40;;;18.00;50.20;;;;;;5032002;28;20867;-42
2022/09/26 02:11:21;;;;;;;18.25;14.98;;;17.90;50.30;;;;;;5030860;28;20177;-44
2022/09/26 02:14:02;;;;;;;14.50;12.65;;;17.90;50.40;;;;;;5031942;28;20252;-43
2022/09/26 02:16:40;;;;;;;13.38;10.90;;;17.90;50.50;;;;;;5031339;28;20188;-43
2022/09/26 02:19:14;;;;;;;14.95;11.45;;;17.90;50.60;;;;;;5031916;28;20710;-42
2022/09/26 02:21:41;;;;;;;14.20;11.40;;;17.90;50.80;;;;;;5032021;28;20150;-42
2022/09/26 02:24:07;;;;;;;12.90;9.70;;;17.80;50.80;;;;;;5031925;28;20201;-43
2022/09/26 02:26:33;;;;;;;14.80;11.13;;;17.80;50.70;;;;;;5031261;28;20590;-42
2022/09/26 02:29:00;;;;;;;12.47;10.50;;;17.80;50.80;;;;;;5032071;28;20478;-42
2022/09/26 02:31:32;;;;;;;12.85;10.80;;;17.80;50.90;;;;;;5031796;28;20934;-43
2022/09/26 02:33:57;;;;;;;15.30;10.00;;;17.90;51.00;;;;;;5031983;28;20612;-42
2022/09/26 02:36:23;;;;;;;13.03;10.87;;;17.80;50.90;;;;;;5031181;28;20197;-42
2022/09/26 02:38:49;;;;;;;12.07;9.53;;;17.90;50.90;;;;;;5031938;28;20437;-42
2022/09/26 02:41:17;;;;;;;11.53;9.60;;;17.80;50.90;;;;;;5031783;28;20864;-42
2022/09/26 02:43:51;;;;;;;11.68;9.75;;;17.80;51.00;;;;;;5031777;28;20253;-43
2022/09/26 02:46:51;;;;;;;11.50;8.80;;;17.80;50.90;;;;;;5031344;28;20253;-42
2022/09/26 02:50:13;;;;;;;8.45;7.60;;;17.70;50.90;;;;;;5031454;28;20202;-43
2022/09/26 02:52:59;;;;;;;9.70;7.10;;;17.60;50.90;;;;;;4932228;29;20182;-41
2022/09/26 02:55:43;;;;;;;9.65;7.60;;;17.50;51.00;;;;;;4932100;29;20206;-43
2022/09/26 02:58:17;;;;;;;8.77;7.72;;;17.50;51.90;;;;;;4931914;29;20237;-42
2022/09/26 03:01:09;;;;;;;10.90;6.63;;;17.50;51.30;;;;;;4932300;29;20246;-42
2022/09/26 03:03:41;;;;;;;9.77;7.00;;;17.50;51.40;;;;;;4932130;29;20260;-41
2022/09/26 03:06:10;;;;;;;7.95;7.00;;;17.50;51.50;;;;;;4931663;29;20686;-42
2022/09/26 03:08:44;;;;;;;8.20;5.65;;;17.50;51.50;;;;;;4931796;29;20197;-42
2022/09/26 03:11:14;;;;;;;9.13;5.30;;;17.60;51.40;;;;;;4932059;29;20174;-41
2022/09/26 03:13:42;;;;;;;6.50;5.03;;;17.60;51.20;;;;;;4932173;29;20189;-42
2022/09/26 03:16:09;;;;;;;5.57;4.75;;;17.50;51.00;;;;;;4933412;29;20286;-42
2022/09/26 03:18:55;;;;;;;5.80;4.75;;;17.50;50.80;;;;;;4935346;29;20194;-42
2022/09/26 03:21:21;;;;;;;8.80;4.85;;;17.50;51.50;;;;;;4935532;29;20732;-42
2022/09/26 03:23:47;;;;;;;5.18;4.68;;;17.40;50.60;;;;;;5000380;28;20185;-42
2022/09/26 03:26:19;;;;;;;4.50;4.05;;;17.40;50.50;;;;;;5033116;28;20177;-42
2022/09/26 03:28:45;;;;;;;5.50;4.95;;;17.40;50.60;;;;;;5034708;28;20182;-42
2022/09/26 03:31:10;;;;;;;6.72;5.15;;;17.40;50.60;;;;;;5034760;28;20177;-42
2022/09/26 03:33:37;;;;;;;10.53;5.80;;;17.40;50.80;;;;;;5034800;28;20162;-42
2022/09/26 03:36:05;;;;;;;7.22;5.55;;;17.30;50.70;;;;;;5034111;28;20178;-42
2022/09/26 03:38:31;;;;;;;6.45;5.45;;;17.30;50.60;;;;;;5034879;28;20431;-43
2022/09/26 03:40:57;;;;;;;8.37;5.47;;;17.30;50.60;;;;;;5034666;28;20242;-43
2022/09/26 03:43:23;;;;;;;10.40;5.22;;;17.30;50.80;;;;;;5034380;28;20963;-44
2022/09/26 03:45:50;;;;;;;8.63;5.38;;;17.30;51.00;;;;;;5033975;28;20178;-44
2022/09/26 03:48:16;;;;;;;7.72;5.88;;;17.30;51.00;;;;;;5034185;28;20198;-44
2022/09/26 03:50:42;;;;;;;11.98;5.82;;;17.30;51.00;;;;;;5034378;28;20173;-44
2022/09/26 03:53:08;;;;;;;8.32;5.90;;;17.30;51.00;;;;;;5034356;28;20170;-44
2022/09/26 03:55:34;;;;;;;7.30;6.60;;;17.30;51.00;;;;;;5034030;28;20182;-45
2022/09/26 03:58:00;;;;;;;5.77;4.70;;;17.30;51.00;;;;;;5034030;28;20451;-44
2022/09/26 04:00:27;;;;;;;8.38;5.75;;;17.30;51.10;;;;;;5034126;28;20562;-43
2022/09/26 04:02:53;;;;;;;9.43;6.35;;;17.30;51.00;;;;;;5034115;28;20696;-44
2022/09/26 04:05:19;;;;;;;8.37;5.53;;;17.20;51.00;;;;;;5034346;28;20201;-44
2022/09/26 04:07:46;;;;;;;9.05;6.32;;;17.30;51.10;;;;;;5033458;28;20252;-43
2022/09/26 04:10:12;;;;;;;7.63;6.30;;;17.30;51.00;;;;;;5033925;28;20190;-45
2022/09/26 04:12:39;;;;;;;7.55;6.80;;;17.20;51.00;;;;;;5033929;28;20170;-44
2022/09/26 04:15:08;;;;;;;12.35;7.15;;;17.30;51.10;;;;;;5034143;28;20537;-44
2022/09/26 04:17:34;;;;;;;15.93;6.65;;;17.30;51.10;;;;;;5033120;28;20272;-44
2022/09/26 04:20:00;;;;;;;8.80;6.53;;;17.30;51.10;;;;;;5033864;28;20363;-42
2022/09/26 04:22:26;;;;;;;10.05;6.85;;;17.20;51.20;;;;;;5033760;28;20397;-42
2022/09/26 04:24:52;;;;;;;8.40;7.00;;;17.30;51.20;;;;;;5033696;28;20192;-41
2022/09/26 04:27:18;;;;;;;12.80;6.57;;;17.20;51.20;;;;;;5032191;28;20209;-42
2022/09/26 04:29:44;;;;;;;7.40;6.60;;;17.20;51.20;;;;;;5033580;28;20235;-42
2022/09/26 04:32:11;;;;;;;8.15;6.03;;;17.20;51.20;;;;;;5033823;28;20814;-41
2022/09/26 04:34:39;;;;;;;9.20;7.22;;;17.20;51.30;;;;;;5033541;28;20181;-41
2022/09/26 04:37:06;;;;;;;9.93;6.68;;;17.20;51.20;;;;;;5032942;28;20645;-42
2022/09/26 04:39:32;;;;;;;10.45;7.32;;;17.20;51.10;;;;;;5033267;28;20206;-42
2022/09/26 04:41:59;;;;;;;9.52;8.52;;;17.20;51.00;;;;;;5033579;28;20174;-42
2022/09/26 04:44:25;;;;;;;9.48;7.10;;;17.20;51.00;;;;;;5033241;28;20300;-42
2022/09/26 04:46:51;;;;;;;8.87;7.10;;;17.20;51.00;;;;;;5032883;28;20189;-42
2022/09/26 04:49:16;;;;;;;8.43;7.40;;;17.20;51.10;;;;;;5033122;28;20566;-41
2022/09/26 04:51:43;;;;;;;11.40;8.00;;;17.20;51.10;;;;;;5033246;28;20197;-42
2022/09/26 04:54:08;;;;;;;9.50;7.60;;;17.20;51.20;;;;;;5033039;28;20653;-42
2022/09/26 04:56:34;;;;;;;9.80;7.97;;;17.20;51.10;;;;;;5032544;28;20198;-44
2022/09/26 04:59:01;;;;;;;9.00;7.53;;;17.20;51.10;;;;;;5033004;28;20523;-44
2022/09/26 05:01:26;;;;;;;12.10;9.18;;;17.20;51.20;;;;;;5033080;28;20253;-44
2022/09/26 05:03:56;;;;;;;11.20;7.30;;;17.20;51.40;;;;;;5033049;28;20307;-44
2022/09/26 05:06:22;;;;;;;15.18;9.32;;;17.10;51.40;;;;;;5032576;28;20252;-44
2022/09/26 05:08:48;;;;;;;10.50;8.27;;;17.10;51.40;;;;;;5033108;28;20233;-44
2022/09/26 05:11:16;;;;;;;14.03;10.17;;;17.10;51.50;;;;;;5032894;28;20950;-43
2022/09/26 05:13:42;;;;;;;11.50;8.77;;;17.20;51.50;;;;;;5032826;28;20459;-44
2022/09/26 05:16:10;;;;;;;11.50;8.90;;;17.20;51.60;;;;;;5032198;28;20189;-44
2022/09/26 05:18:37;;;;;;;13.82;10.25;;;17.20;51.40;;;;;;5032950;28;20261;-44
2022/09/26 05:21:06;;;;;;;15.25;9.50;;;17.20;51.50;;;;;;5032769;28;20206;-44
2022/09/26 05:26:25;;;;;;;12.52;9.32;;;17.20;52.20;;;;;;5032312;28;20241;-44
2022/09/26 05:28:56;;;;;;;11.30;9.60;;;17.10;51.50;;;;;;5032516;28;20193;-44
2022/09/26 05:31:25;;;;;;;11.77;8.65;;;17.20;51.60;;;;;;5032940;28;20186;-45
2022/09/26 05:33:51;;;;;;;13.60;10.27;;;17.20;51.60;;;;;;5032403;28;20261;-45
2022/09/26 05:36:18;;;;;;;13.60;9.63;;;17.20;51.60;;;;;;5031819;28;20249;-44
2022/09/26 05:38:44;;;;;;;13.23;10.27;;;17.20;51.60;;;;;;5032213;28;20442;-44
2022/09/26 05:41:12;;;;;;;12.00;9.32;;;17.20;51.60;;;;;;5032310;28;20260;-44
2022/09/26 05:43:38;;;;;;;14.30;9.75;;;17.20;51.50;;;;;;5032311;28;20217;-44
2022/09/26 05:46:06;;;;;;;14.32;11.23;;;17.20;51.50;;;;;;5031613;28;20188;-44
2022/09/26 05:48:34;;;;;;;11.40;8.40;;;17.20;51.50;;;;;;5030829;28;20213;-44
2022/09/26 05:51:09;;;;;;;18.17;10.70;;;17.20;51.50;;;;;;5032259;28;20581;-44
2022/09/26 05:53:36;;;;;;;14.80;9.55;;;17.20;51.50;;;;;;5032230;28;20161;-44
2022/09/26 05:56:03;;;;;;;12.20;9.80;;;17.20;51.50;;;;;;5031424;28;20204;-42
2022/09/26 05:58:33;;;;;;;11.60;8.60;;;17.20;51.50;;;;;;5032146;28;20573;-42
2022/09/26 06:01:08;;;;;;;10.25;9.18;;;17.20;51.70;;;;;;5032569;28;20553;-42
2022/09/26 06:03:34;;;;;;;12.02;9.85;;;17.10;51.60;;;;;;5032149;28;20169;-42
2022/09/26 06:06:12;;;;;;;13.23;9.50;;;17.20;51.70;;;;;;5031487;28;20265;-42
2022/09/26 06:08:38;;;;;;;12.43;8.82;;;17.20;51.60;;;;;;5031977;28;20185;-42
2022/09/26 06:11:11;;;;;;;12.18;10.30;;;17.20;51.60;;;;;;5031955;28;20680;-42
2022/09/26 06:13:37;;;;;;;14.00;10.27;;;17.10;51.50;;;;;;5032120;28;20676;-42
2022/09/26 06:16:06;;;;;;;13.63;9.63;;;17.20;51.40;;;;;;5031271;28;20178;-42
2022/09/26 06:18:33;;;;;;;16.70;9.95;;;17.20;51.40;;;;;;5031827;28;20202;-43
2022/09/26 06:21:08;;;;;;;13.77;9.50;;;17.20;51.50;;;;;;5032010;28;20279;-42
2022/09/26 06:23:35;;;;;;;14.27;9.68;;;17.20;51.50;;;;;;5032093;28;20207;-42
2022/09/26 06:26:09;;;;;;;14.68;8.68;;;17.20;51.40;;;;;;5031326;28;20534;-42
2022/09/26 06:28:36;;;;;;;9.65;7.82;;;17.20;51.30;;;;;;5031948;28;20247;-42
2022/09/26 06:31:13;;;;;;;12.55;8.60;;;17.10;50.50;;;;;;5031837;28;20646;-42
2022/09/26 06:33:38;;;;;;;7.90;7.03;;;17.10;50.50;;;;;;5032319;28;20197;-42
2022/09/26 06:36:07;;;;;;;11.17;7.37;;;16.90;50.60;;;;;;5031261;28;20264;-42
2022/09/26 06:38:33;;;;;;;10.25;7.68;;;16.90;50.60;;;;;;5031995;28;20511;-42
2022/09/26 06:40:59;;;;;;;11.40;7.65;;;16.90;50.80;;;;;;5031696;28;20173;-42
2022/09/26 06:43:25;;;;;;;8.52;6.40;;;16.90;50.90;;;;;;5031865;28;20240;-42
2022/09/26 06:45:52;;;;;;;9.70;7.87;;;16.90;50.90;;;;;;5031417;28;20634;-42
2022/09/26 06:48:21;;;;;;;10.55;7.35;;;17.00;51.10;;;;;;5031515;28;20452;-42
2022/09/26 06:50:51;;;;;;;8.23;6.65;;;17.00;50.80;;;;;;5033543;28;20166;-42
2022/09/26 06:53:17;;;;;;;17.20;8.90;;;17.00;50.70;;;;;;5035752;28;20166;-42
2022/09/26 06:55:43;;;;;;;10.65;7.25;;;17.00;50.70;;;;;;5034879;28;20177;-42
2022/09/26 06:58:09;;;;;;;10.17;6.50;;;17.10;50.70;;;;;;5035251;28;20202;-42
2022/09/26 07:00:35;;;;;;;10.03;6.93;;;17.00;50.60;;;;;;5035414;28;20166;-42
2022/09/26 07:03:01;;;;;;;7.77;6.50;;;17.10;50.90;;;;;;5035356;28;20166;-43
2022/09/26 07:05:27;;;;;;;6.72;6.03;;;17.00;50.80;;;;;;5035146;28;20166;-42
2022/09/26 07:07:54;;;;;;;8.47;5.90;;;17.10;51.00;;;;;;5034806;28;20259;-42
2022/09/26 07:10:20;;;;;;;7.47;5.20;;;17.10;50.40;;;;;;5035474;28;20412;-42
2022/09/26 07:12:47;;;;;;;8.13;5.00;;;17.10;50.40;;;;;;5035166;28;20182;-42
2022/09/26 07:15:16;;;;;;;5.30;4.75;;;17.00;50.40;;;;;;5035050;28;20644;-42
2022/09/26 07:17:43;;;;;;;10.60;4.85;;;17.10;50.40;;;;;;5034454;28;20341;-42
2022/09/26 07:20:16;;;;;;;7.60;5.43;;;17.10;50.40;;;;;;5035193;28;20646;-42
2022/09/26 07:22:42;;;;;;;9.27;6.78;;;17.10;50.30;;;;;;5034876;28;20193;-42
2022/09/26 07:25:09;;;;;;;6.90;5.38;;;17.10;50.20;;;;;;5034870;28;20321;-42
2022/09/26 07:27:36;;;;;;;10.02;6.93;;;17.10;50.40;;;;;;5034302;28;20190;-42
2022/09/26 07:30:03;;;;;;;9.25;7.10;;;17.10;50.40;;;;;;5034799;28;20178;-42
2022/09/26 07:32:30;;;;;;;8.35;6.85;;;17.10;50.50;;;;;;5034719;28;20209;-42
2022/09/26 07:34:58;;;;;;;10.50;6.38;;;17.20;50.40;;;;;;5034825;28;20180;-42
2022/09/26 07:37:25;;;;;;;11.07;6.82;;;17.10;50.60;;;;;;5033848;28;20564;-42
2022/09/26 07:39:50;;;;;;;8.85;7.28;;;17.20;50.70;;;;;;5034593;28;20178;-42
2022/09/26 07:42:17;;;;;;;9.10;7.40;;;17.30;50.90;;;;;;5034544;28;20515;-42
2022/09/26 07:44:46;;;;;;;8.82;7.63;;;17.40;51.00;;;;;;5033307;28;20201;-42
2022/09/26 07:50:13;;;;;;;7.30;6.30;;;17.40;50.90;;;;;;5034453;28;20171;-42
2022/09/26 07:52:43;;;;;;;10.50;6.38;;;17.50;50.90;;;;;;5034328;28;20205;-42
2022/09/26 07:55:12;;;;;;;11.07;6.97;;;17.50;50.80;;;;;;5034371;28;20158;-42
2022/09/26 07:57:38;;;;;;;9.30;6.90;;;17.50;50.70;;;;;;5032193;28;20225;-42
2022/09/26 08:00:11;;;;;;;10.20;6.90;;;17.60;50.60;;;;;;5034223;28;20170;-42
2022/09/26 08:02:41;;;;;;;8.10;7.10;;;17.60;50.80;;;;;;5033021;28;20384;-43
2022/09/26 08:05:09;;;;;;;9.88;8.77;;;17.70;50.60;;;;;;5034069;28;20178;-42
2022/09/26 08:07:35;;;;;;;7.97;7.18;;;17.70;50.70;;;;;;5033108;28;20170;-42
2022/09/26 08:10:05;;;;;;;12.88;7.78;;;17.80;50.80;;;;;;5033966;28;20296;-42
2022/09/26 08:12:37;;;;;;;8.38;6.50;;;17.90;51.00;;;;;;5034035;28;20172;-42
2022/09/26 08:15:05;;;;;;;7.95;6.40;;;18.10;50.60;;;;;;5033953;28;20182;-42
2022/09/26 08:17:33;;;;;;;7.30;6.20;;;18.10;50.10;;;;;;5033252;28;20229;-42
2022/09/26 08:20:00;;;;;;;8.02;7.13;;;18.10;50.30;;;;;;5034026;28;20760;-43
2022/09/26 08:22:26;;;;;;;9.10;7.47;;;18.10;49.20;;;;;;5033851;28;20530;-43
2022/09/26 08:24:53;;;;;;;10.63;7.53;;;18.10;49.60;;;;;;5033925;28;20185;-42
2022/09/26 08:27:21;;;;;;;11.48;8.25;;;18.10;49.60;;;;;;5033271;28;20308;-42
2022/09/26 08:29:48;;;;;;;9.93;7.72;;;18.20;50.30;;;;;;5033670;28;20197;-42
2022/09/26 08:32:19;;;;;;;8.98;7.53;;;18.30;49.60;;;;;;5033922;28;20174;-42
2022/09/26 08:34:46;;;;;;;8.88;7.15;;;18.40;50.20;;;;;;5033612;28;20179;-42
2022/09/26 08:37:13;;;;;;;11.05;7.40;;;18.60;50.40;;;;;;5033231;28;20268;-42
2022/09/26 08:39:39;;;;;;;12.00;8.48;;;18.70;50.20;;;;;;5033669;28;20201;-42
2022/09/26 08:42:19;;;;;;;11.23;7.90;;;18.80;50.00;;;;;;5033558;28;20548;-42
2022/09/26 08:46:06;;;;;;;13.00;7.93;;;19.10;50.20;;;;;;5033362;28;20400;-42
2022/09/26 08:47:52;;;;;;;8.23;6.78;;;19.20;49.90;;;;;;5032446;28;20217;-42
2022/09/26 08:50:38;;;;;;;13.10;7.90;;;19.40;50.00;;;;;;5033196;28;20181;-42
2022/09/26 08:53:26;;;;;;;9.80;7.07;;;19.40;47.70;;;;;;5033150;28;20267;-42
2022/09/26 08:55:54;;;;;;;9.50;7.72;;;19.40;48.90;;;;;;5032507;28;20182;-42
2022/09/26 08:58:42;;;;;;;7.95;6.30;;;19.40;48.40;;;;;;5033149;28;20213;-43
2022/09/26 09:01:18;;;;;;;11.82;7.75;;;19.50;48.40;;;;;;5032956;28;20170;-42
2022/09/26 09:04:11;;;;;;;14.43;8.10;;;19.60;48.60;;;;;;5033094;28;20256;-43
2022/09/26 09:06:37;;;;;;;8.18;7.30;;;19.60;47.00;;;;;;5032502;28;20181;-42
2022/09/26 09:09:04;;;;;;;8.80;6.80;;;19.60;45.80;;;;;;5032860;28;20608;-42
2022/09/26 09:11:45;;;;;;;9.07;7.65;;;19.50;46.40;;;;;;5032941;28;20495;-43
2022/09/26 09:14:29;;;;;;;8.30;7.50;;;19.60;47.40;;;;;;5032446;28;20178;-43
2022/09/26 09:16:57;;;;;;;6.50;5.72;;;19.70;48.00;;;;;;5032152;28;20252;-43
2022/09/26 09:19:23;;;;;;;9.55;7.53;;;19.90;47.70;;;;;;5032821;28;20222;-42
2022/09/26 09:22:00;;;;;;;8.70;6.20;;;20.10;47.10;;;;;;5032800;28;20638;-42
2022/09/26 09:25:00;;;;;;;7.88;5.47;;;20.20;46.10;;;;;;5031560;28;20193;-42
2022/09/26 09:28:03;;;;;;;8.25;5.38;;;20.20;45.60;;;;;;5032001;28;20243;-42
2022/09/26 09:30:40;;;;;;;7.20;5.63;;;20.30;46.40;;;;;;5032542;28;20189;-42
2022/09/26 09:33:26;;;;;;;6.60;5.50;;;20.50;46.10;;;;;;5032715;28;20247;-42
2022/09/26 09:36:26;;;;;;;6.82;5.32;;;20.50;45.20;;;;;;5031845;28;20192;-43
2022/09/26 09:38:53;;;;;;;9.27;6.10;;;20.50;45.50;;;;;;4977945;28;20213;-42
2022/09/26 09:41:29;;;;;;;8.77;5.50;;;20.60;45.70;;;;;;5032429;28;20174;-42
2022/09/26 09:43:59;;;;;;;5.38;4.65;;;20.70;41.30;;;;;;5032756;28;20239;-42
2022/09/26 09:46:34;;;;;;;5.95;4.28;;;20.70;43.60;;;;;;5031729;28;20182;-42
2022/09/26 09:49:09;;;;;;;3.40;3.08;;;20.80;43.50;;;;;;5032072;28;20292;-42
2022/09/26 09:51:53;;;;;;;4.78;3.80;;;20.90;44.20;;;;;;5032284;28;20239;-42
2022/09/26 09:54:40;;;;;;;5.72;2.50;;;20.90;42.60;;;;;;5032420;28;20201;-42
2022/09/26 09:57:27;;;;;;;3.65;1.77;;;21.00;39.10;;;;;;5034399;22;20226;-42
2022/09/26 10:00:16;;;;;;;5.35;2.17;;;20.90;37.80;;;;;;5007397;28;20178;-42
2022/09/26 10:02:42;;;;;;;2.90;2.00;;;20.80;39.60;;;;;;5012665;28;20182;-41
2022/09/26 10:05:27;;;;;;;5.60;1.75;;;20.60;37.20;;;;;;5012411;28;20181;-41
2022/09/26 10:07:58;;;;;;;2.25;1.88;;;20.60;38.00;;;;;;5011808;28;20206;-41
2022/09/26 10:10:38;;;;;;;5.60;2.17;;;20.60;37.00;;;;;;5012256;28;20175;-42
2022/09/26 10:13:05;;;;;;;2.42;2.17;;;20.60;36.90;;;;;;5012317;28;20159;-42
2022/09/26 10:15:31;;;;;;;3.25;2.20;;;20.50;36.70;;;;;;5012093;28;20186;-41
2022/09/26 10:18:04;;;;;;;2.97;1.85;;;20.60;38.00;;;;;;5011931;28;20214;-41
2022/09/26 10:20:41;;;;;;;3.75;1.88;;;20.70;38.20;;;;;;5012198;28;20166;-42
2022/09/26 10:23:23;;;;;;;2.80;1.70;;;20.80;37.80;;;;;;5012279;28;20270;-42
2022/09/26 10:25:50;;;;;;;5.15;1.98;;;20.90;35.00;;;;;;5013615;28;20167;-42
2022/09/26 10:28:53;;;;;;;3.08;2.30;;;21.00;35.70;;;;;;5016126;28;20539;-43
2022/09/26 10:31:28;;;;;;;5.18;2.22;;;21.10;36.20;;;;;;4984979;28;20186;-42
2022/09/26 10:34:06;;;;;;;6.97;2.20;;;21.20;34.90;;;;;;5016141;28;20155;-42
2022/09/26 10:36:35;;;;;;;4.05;1.92;;;21.40;34.90;;;;;;5015600;28;20360;-41
2022/09/26 10:42:18;;;;;;;3.37;2.20;;;21.60;35.70;;;;;;5016139;28;20240;-42
2022/09/26 10:44:46;;;;;;;5.35;2.08;;;21.80;35.40;;;;;;5015822;28;20959;-42
2022/09/26 10:47:25;;;;;;;3.60;2.10;;;21.80;33.70;;;;;;5015075;28;20221;-42
2022/09/26 10:50:11;;;;;;;1.80;1.40;;;22.00;34.50;;;;;;5015633;28;20175;-42
2022/09/26 10:53:07;;;;;;;3.35;2.35;;;22.20;33.40;;;;;;5014443;28;20183;-42
2022/09/26 10:55:50;;;;;;;9.73;2.17;;;22.20;34.10;;;;;;5015121;28;20183;-41
2022/09/26 10:58:26;;;;;;;7.20;2.65;;;22.20;33.40;;;;;;5015534;28;20199;-42
2022/09/26 11:00:53;;;;;;;5.63;1.95;;;22.40;33.80;;;;;;5015876;28;20165;-41
2022/09/26 11:03:23;;;;;;;6.55;2.28;;;22.40;31.70;;;;;;5015467;28;20170;-42
2022/09/26 11:05:55;;;;;;;1.80;1.45;;;22.40;32.50;;;;;;5014823;28;20313;-42
2022/09/26 11:08:26;;;;;;;2.80;1.83;;;22.40;32.80;;;;;;5014942;28;20175;-42
2022/09/26 11:10:54;;;;;;;2.40;2.00;;;22.50;33.80;;;;;;5015065;28;20410;-42
2022/09/26 11:13:25;;;;;;;3.05;2.00;;;22.70;34.00;;;;;;5015335;28;20769;-45
2022/09/26 11:16:21;;;;;;;2.27;1.40;;;22.80;32.90;;;;;;5014688;28;20174;-42
2022/09/26 11:18:57;;;;;;;5.73;1.90;;;22.80;29.20;;;;;;5002524;28;20465;-43
2022/09/26 11:21:31;;;;;;;9.07;1.60;;;22.80;31.10;;;;;;5015061;28;20856;-42
2022/09/26 11:24:10;;;;;;;7.50;1.37;;;22.90;30.50;;;;;;5015379;28;20398;-42
2022/09/26 11:27:10;;;;;;;2.23;1.20;;;22.80;28.60;;;;;;5014359;28;20425;-43
2022/09/26 11:29:52;;;;;;;4.00;1.40;;;22.60;26.60;;;;;;5015038;28;20449;-43
2022/09/26 11:32:29;;;;;;;3.03;1.50;;;22.60;30.50;;;;;;5014953;28;20436;-43
2022/09/26 11:35:01;;;;;;;3.40;1.43;;;22.70;30.00;;;;;;5014932;28;20398;-43
2022/09/26 11:38:04;;;;;;;1.80;1.27;;;22.80;30.30;;;;;;5014207;28;20457;-43
2022/09/26 11:40:45;;;;;;;3.27;2.00;;;22.80;29.30;;;;;;5014885;28;20829;-43
2022/09/26 11:43:38;;;;;;;5.60;1.50;;;22.90;30.50;;;;;;5014771;28;20390;-43
2022/09/26 11:46:40;;;;;;;2.88;1.75;;;22.80;27.10;;;;;;5014039;28;20422;-44
2022/09/26 11:49:17;;;;;;;3.28;2.03;;;22.70;29.10;;;;;;5014844;28;20178;-44
2022/09/26 11:51:57;;;;;;;2.30;1.10;;;22.80;29.40;;;;;;5013425;28;20178;-43
2022/09/26 11:55:00;;;;;;;2.80;1.20;;;22.80;29.90;;;;;;5014840;28;20804;-42
2022/09/26 11:57:41;;;;;;;4.63;1.40;;;22.90;29.10;;;;;;5013698;28;20564;-43
2022/09/26 12:00:14;;;;;;;3.37;1.23;;;22.90;31.40;;;;;;5014798;28;20386;-43
2022/09/26 12:03:04;;;;;;;2.90;2.03;;;22.80;32.30;;;;;;5014450;28;20398;-43
2022/09/26 12:05:48;;;;;;;2.90;1.43;;;22.80;31.80;;;;;;5014062;28;20469;-42
2022/09/26 12:08:20;;;;;;;2.33;1.63;;;22.80;31.30;;;;;;5014457;28;20402;-44
2022/09/26 12:11:14;;;;;;;3.07;1.37;;;22.70;31.60;;;;;;5014272;28;20905;-44
2022/09/26 12:14:08;;;;;;;5.03;1.60;;;22.60;30.70;;;;;;5014427;28;20412;-43
2022/09/26 12:17:04;;;;;;;2.60;1.33;;;22.60;31.70;;;;;;5013532;28;21052;-43
2022/09/26 12:19:44;;;;;;;3.27;1.27;;;22.40;32.00;;;;;;5014009;28;20409;-43
2022/09/26 12:22:48;;;;;;;3.67;1.40;;;22.40;31.90;;;;;;5014405;28;20426;-43
2022/09/26 12:25:55;;;;;;;2.00;1.80;;;22.20;29.10;;;;;;5013991;28;20404;-42
2022/09/26 12:28:40;;;;;;;2.40;1.40;;;22.00;28.90;;;;;;5013942;28;20415;-43
2022/09/26 12:31:37;;;;;;;3.65;1.67;;;21.80;28.00;;;;;;5014127;28;20638;-43
2022/09/26 12:34:22;;;;;;;2.10;1.10;;;21.60;29.20;;;;;;5013895;28;20269;-43
2022/09/26 12:37:14;;;;;;;3.95;1.40;;;21.50;30.90;;;;;;5013315;28;20536;-43
2022/09/26 12:39:46;;;;;;;4.57;1.23;;;21.60;31.10;;;;;;5013764;28;20182;-43
2022/09/26 12:42:21;;;;;;;4.57;1.33;;;21.60;31.70;;;;;;5013652;28;20574;-43
2022/09/26 12:45:05;;;;;;;3.10;1.50;;;21.60;31.40;;;;;;5013820;28;20408;-43
2022/09/26 12:47:31;;;;;;;2.00;1.47;;;21.70;31.90;;;;;;5012450;28;20606;-43
2022/09/26 12:50:16;;;;;;;3.45;1.30;;;21.60;29.70;;;;;;5013589;28;20436;-43
2022/09/26 12:53:02;;;;;;;1.85;1.25;;;21.60;31.80;;;;;;5013517;28;20671;-43
2022/09/26 12:55:52;;;;;;;5.93;1.43;;;21.60;31.20;;;;;;5013624;28;20174;-43
2022/09/26 12:58:28;;;;;;;2.10;1.37;;;21.80;33.00;;;;;;5013391;28;20833;-43
2022/09/26 13:01:15;;;;;;;1.90;1.10;;;22.10;32.40;;;;;;5013323;28;20417;-43
2022/09/26 13:04:09;;;;;;;2.37;1.27;;;22.50;31.30;;;;;;5013329;28;20757;-43
2022/09/26 13:06:43;;;;;;;1.95;1.02;;;22.90;30.10;;;;;;5012940;28;20927;-44
2022/09/26 13:09:47;;;;;;;1.63;1.13;;;23.40;31.10;;;;;;5012884;28;20626;-43
2022/09/26 13:12:19;;;;;;;1.77;0.73;;;23.70;30.80;;;;;;5004984;28;20445;-42
2022/09/26 13:15:16;;;;;;;3.57;1.23;;;23.80;25.00;;;;;;5013134;28;21119;-44
2022/09/26 13:17:46;;;;;;;2.93;1.30;;;23.60;25.10;;;;;;5012320;28;21035;-44
2022/09/26 13:20:36;;;;;;;2.90;1.23;;;23.50;25.40;;;;;;5012988;28;20405;-44
2022/09/26 13:23:26;;;;;;;1.97;1.20;;;23.40;24.60;;;;;;5013005;28;20470;-44